Hemlock, Indiana
Current Conditions -  °F | °C
As of 1:35 PM on Sunday 23 Nov 2014 (Local Time) from KOKK Reporting Station
Overcast Overcast  
Wind Chill: 52°   Ceiling: 2600
Heat Index: 52°   Visibility: 8mi
Dew Point: 48°   Wind: 16mph
Humidity: 88%   Direction: 180°S
Pressure: 29.68"   Gusts: NA
Location:  40.42°N, 86.04°W
Report Text: KOKK 231835Z AUTO 18014KT 8SM FEW020 BKN026 OVC041 11/09 A2968 RMK AO1
Loading
Personal Weather Stations






























Interactive Weather Map New forecast layout! Learn more

10-Day Weather Forecast

Advertisements
Track Severe Weather on mobile